New Orleans, LA (70142)

1:09 PM CST on February 09, 2016 (GMT -0600)
Bywater | | Change Station
CLOSE
Current Station
Personal Weather Station
Location: New Orleans, LA
Elevation: 3 ft
Nearby Weather Stations
Active Advisory: Wind Advisory

Elev 3 ft 29.96 °N, 90.03 °W | Updated 1 second ago

Clear
Clear
56.1 °F
Feels Like 56.1 °F
N
1.0
Wind Variable Wind from ENE
Gusts 10.0 mph

Today
High -- | Low -- °F
--% Chance of Precip.
Yesterday
High -- | Low -- °F
Precip. -- in
Pressure 30.09 in
Visibility 10.0 miles
Clouds Clear
Dew Point 18 °F
Humidity 22%
Rainfall 0.00 in
Snow Depth Not available.
6:45 AM 5:43 PM
New Moon, 2% visible
METAR KNEW 091853Z AUTO 28017KT 10SM CLR 11/M02 A3011 RMK AO2 SLP190 T01111022
Pressure 30.09 in
Visibility 10.0 miles
Clouds Clear
Dew Point 18 °F
Humidity 22%
Rainfall 0.00 in
Snow Depth Not available.
6:45 AM 5:43 PM
New Moon, 2% visible
METAR KNEW 091853Z AUTO 28017KT 10SM CLR 11/M02 A3011 RMK AO2 SLP190 T01111022

10-Day Weather Forecast

Almanac

Astronomy

Feb. 09, 2016 Rise Set
Actual Time
Civil Twilight
Nautical Twilight
Astronomical Twilight
Moon
Length of Visible Light
Length of Day
Tomorrow will be .
, % of the Moon is Illuminated

Today's Extremes

State Highs State Lows

Community

WunderPhotos

Upload Photos

1,891,664 photos uploaded!

WunderBlog® & News

Nearby

Air Quality

  Air Quality AQ Index Pollutant
Not available.

Snow Depth

Station Depth Elevation

Earthquake Activity

City Distance Mag. Time & Date
Minimum magnitude displayed is 2.5.

Coastal Water Temperatures

Place Temperature

Stations

Nearby Weather Stations

Station Location Temp. Windchill Dew Point Humidity Wind Precip. Elev Updated Type
                   

Watches & Warnings

Wind Advisory
Issued: 9:24 AM CST Feb. 9, 2016 – National Weather Service

... Wind Advisory remains in effect until 5 PM CST this
afternoon...

* winds... 20 to 25 mph with frequent gusts of 35 and up to 40
mph.

* Impacts... windy conditions will lead to difficult driving
conditions especially along elevated roadways along with
east/west highways and interstates.

Precautionary/preparedness actions...

A Wind Advisory means that winds of 26 to 39 mph are expected.
Winds this strong can make driving difficult... especially for
high profile vehicles. Use extra caution.



32